createdAt,value
2023-04-08T00:00:36.053Z,1.32
2023-04-08T00:01:36.136Z,1.31
2023-04-08T00:02:36.476Z,1.31
2023-04-08T00:03:36.419Z,1.32
2023-04-08T00:04:36.518Z,1.31
2023-04-08T00:05:36.538Z,1.30
2023-04-08T00:06:36.663Z,1.30
2023-04-08T00:07:36.744Z,1.32
2023-04-08T00:08:36.825Z,1.32
2023-04-08T00:09:36.904Z,1.30
2023-04-08T00:10:36.990Z,1.32
2023-04-08T00:11:37.052Z,1.31
2023-04-08T00:12:37.114Z,1.31
2023-04-08T00:13:37.190Z,1.31
2023-04-08T00:14:37.251Z,1.30
2023-04-08T00:15:37.337Z,1.32
2023-04-08T00:16:37.444Z,1.33
2023-04-08T00:17:37.553Z,1.31
2023-04-08T00:18:37.612Z,1.31
2023-04-08T00:19:37.762Z,1.31
2023-04-08T00:20:37.819Z,1.32
2023-04-08T00:21:38.007Z,1.30
2023-04-08T00:22:38.024Z,1.31
2023-04-08T00:23:38.129Z,1.30
2023-04-08T00:24:38.238Z,1.30
2023-04-08T00:25:38.343Z,1.30
2023-04-08T00:26:38.458Z,1.31
2023-04-08T00:27:38.548Z,1.32
2023-04-08T00:28:38.665Z,1.31
2023-04-08T00:29:38.758Z,1.32
2023-04-08T00:30:39.867Z,1.31
2023-04-08T00:31:38.972Z,1.32
2023-04-08T00:32:39.109Z,1.32
2023-04-08T00:33:39.128Z,1.30
2023-04-08T00:34:39.233Z,1.33
2023-04-08T00:35:39.360Z,1.32
2023-04-08T00:36:39.451Z,1.33
2023-04-08T00:37:39.543Z,1.30
2023-04-08T00:38:39.649Z,1.32
2023-04-08T00:39:39.766Z,1.32
2023-04-08T00:40:39.856Z,1.32
2023-04-08T00:41:39.971Z,1.32
2023-04-08T00:42:40.081Z,1.34
2023-04-08T00:43:40.170Z,1.31
2023-04-08T00:44:40.289Z,1.32
2023-04-08T00:45:40.380Z,1.34
2023-04-08T00:46:40.555Z,1.33
2023-04-08T00:47:40.626Z,1.33
2023-04-08T00:48:40.652Z,1.31
2023-04-08T00:49:40.761Z,1.31
2023-04-08T00:50:40.838Z,1.35
2023-04-08T00:51:40.941Z,1.32
2023-04-08T00:52:41.037Z,1.30
2023-04-08T00:53:41.140Z,1.31
2023-04-08T00:54:41.219Z,1.32
2023-04-08T00:55:41.321Z,1.34
2023-04-08T00:56:41.392Z,1.33
2023-04-08T00:57:41.502Z,1.34
2023-04-08T00:58:41.603Z,1.32
2023-04-08T00:59:41.678Z,1.34
2023-04-08T01:00:41.775Z,1.32
2023-04-08T01:01:41.973Z,1.33
2023-04-08T01:02:42.102Z,1.33
2023-04-08T01:03:42.065Z,1.31
2023-04-08T01:04:42.058Z,1.34
2023-04-08T01:05:42.134Z,1.32
2023-04-08T01:06:42.223Z,1.34
2023-04-08T01:07:42.324Z,1.33
2023-04-08T01:08:42.397Z,1.32
2023-04-08T01:09:42.501Z,1.32
2023-04-08T01:10:42.613Z,1.31
2023-04-08T01:11:42.719Z,1.31
2023-04-08T01:12:42.825Z,1.31
2023-04-08T01:13:42.924Z,1.32
2023-04-08T01:14:42.981Z,1.33
2023-04-08T01:15:43.144Z,1.32
2023-04-08T01:16:43.199Z,1.34
2023-04-08T01:17:43.313Z,1.32
2023-04-08T01:18:43.369Z,1.33
2023-04-08T01:19:43.449Z,1.34
2023-04-08T01:20:43.529Z,1.32
2023-04-08T01:21:43.610Z,1.34
2023-04-08T01:22:43.717Z,1.36
2023-04-08T01:23:43.815Z,1.32
2023-04-08T01:24:43.940Z,1.33
2023-04-08T01:25:44.027Z,1.33
2023-04-08T01:26:44.122Z,1.34
2023-04-08T01:27:44.247Z,1.32
2023-04-08T01:28:44.338Z,1.33
2023-04-08T01:29:44.442Z,1.35
2023-04-08T01:30:44.552Z,1.32
2023-04-08T01:31:44.788Z,1.34
2023-04-08T01:32:44.770Z,1.34
2023-04-08T01:33:44.854Z,1.32
2023-04-08T01:34:44.963Z,1.34
2023-04-08T01:35:45.123Z,1.33
2023-04-08T01:36:45.169Z,1.33
2023-04-08T01:37:45.266Z,1.33
2023-04-08T01:38:45.365Z,1.35
2023-04-08T01:39:45.462Z,1.34
2023-04-08T01:40:45.566Z,1.34
2023-04-08T01:41:45.668Z,1.35
2023-04-08T01:42:45.751Z,1.33
2023-04-08T01:43:45.841Z,1.34
2023-04-08T01:44:45.929Z,1.32
2023-04-08T01:45:46.020Z,1.34
2023-04-08T01:46:46.244Z,1.35
2023-04-08T01:47:46.250Z,1.35
2023-04-08T01:48:46.305Z,1.33
2023-04-08T01:49:46.408Z,1.34
2023-04-08T01:50:46.483Z,1.33
2023-04-08T01:51:46.591Z,1.33
2023-04-08T01:52:46.674Z,1.32
2023-04-08T01:53:46.790Z,1.31
2023-04-08T01:54:46.864Z,1.32
2023-04-08T01:55:46.960Z,1.32
2023-04-08T01:56:47.065Z,1.33
2023-04-08T01:57:47.184Z,1.34
2023-04-08T01:58:47.409Z,1.34
2023-04-08T01:59:47.363Z,1.32
2023-04-08T02:00:47.461Z,1.33
2023-04-08T02:01:47.630Z,1.34
2023-04-08T02:02:47.860Z,1.32
2023-04-08T02:03:47.845Z,1.36
2023-04-08T02:04:47.845Z,1.36
2023-04-08T02:05:47.924Z,1.35
2023-04-08T02:06:48.012Z,1.33
2023-04-08T02:07:48.120Z,1.33
2023-04-08T02:08:48.458Z,1.33
2023-04-08T02:09:48.268Z,1.33
2023-04-08T02:10:48.369Z,1.33
2023-04-08T02:11:48.481Z,1.35
2023-04-08T02:12:48.585Z,1.34
2023-04-08T02:13:48.687Z,1.33
2023-04-08T02:14:48.785Z,1.36
2023-04-08T02:15:48.939Z,1.37
2023-04-08T02:16:49.027Z,1.35
2023-04-08T02:17:49.025Z,1.34
2023-04-08T02:18:49.337Z,1.37
2023-04-08T02:19:49.106Z,1.34
2023-04-08T02:20:49.176Z,1.31
2023-04-08T02:21:49.229Z,1.34
2023-04-08T02:22:49.261Z,1.36
2023-04-08T02:23:49.345Z,1.34
2023-04-08T02:24:49.417Z,1.33
2023-04-08T02:25:49.515Z,1.33
2023-04-08T02:26:49.575Z,1.33
2023-04-08T02:27:49.700Z,1.33
2023-04-08T02:28:50.032Z,1.34
2023-04-08T02:29:49.877Z,1.37
2023-04-08T02:30:49.970Z,1.34
2023-04-08T02:31:50.950Z,1.34
2023-04-08T02:32:50.228Z,1.35
2023-04-08T02:33:50.220Z,1.38
2023-04-08T02:34:50.324Z,1.36
2023-04-08T02:35:50.446Z,1.34
2023-04-08T02:36:50.471Z,1.35
2023-04-08T02:37:50.547Z,1.35
2023-04-08T02:38:50.798Z,1.36
2023-04-08T02:39:50.703Z,1.34
2023-04-08T02:40:50.797Z,1.35
2023-04-08T02:41:50.882Z,1.37
2023-04-08T02:42:51.020Z,1.35
2023-04-08T02:43:51.079Z,1.36
2023-04-08T02:44:51.185Z,1.34
2023-04-08T02:45:51.310Z,1.36
2023-04-08T02:46:51.389Z,1.36
2023-04-08T02:47:51.510Z,1.35
2023-04-08T02:48:51.646Z,1.35
2023-04-08T02:49:51.585Z,1.36
2023-04-08T02:50:51.672Z,1.35
2023-04-08T02:51:51.775Z,1.34
2023-04-08T02:52:51.842Z,1.36
2023-04-08T02:53:51.894Z,1.37
2023-04-08T02:54:52.014Z,1.36
2023-04-08T02:55:52.123Z,1.35
2023-04-08T02:56:52.193Z,1.35
2023-04-08T02:57:52.283Z,1.34
2023-04-08T02:58:52.420Z,1.35
2023-04-08T02:59:52.465Z,1.36
2023-04-08T03:00:52.585Z,1.34
2023-04-08T03:01:52.762Z,1.34
2023-04-08T03:02:52.982Z,1.35
2023-04-08T03:03:53.065Z,1.38
2023-04-08T03:04:52.932Z,1.36
2023-04-08T03:05:53.013Z,1.34
2023-04-08T03:06:53.119Z,1.38
2023-04-08T03:07:53.210Z,1.36
2023-04-08T03:08:53.295Z,1.35
2023-04-08T03:09:53.363Z,1.34
2023-04-08T03:10:53.469Z,1.36
2023-04-08T03:11:53.550Z,1.36
2023-04-08T03:12:53.625Z,1.35
2023-04-08T03:13:53.720Z,1.35
2023-04-08T03:14:53.809Z,1.35
2023-04-08T03:15:53.907Z,1.36
2023-04-08T03:16:54.046Z,1.35
2023-04-08T03:17:54.148Z,1.37
2023-04-08T03:18:54.206Z,1.36
2023-04-08T03:19:54.309Z,1.35
2023-04-08T03:20:54.415Z,1.36
2023-04-08T03:21:54.521Z,1.38
2023-04-08T03:22:54.626Z,1.35
2023-04-08T03:23:54.719Z,1.36
2023-04-08T03:24:54.820Z,1.36
2023-04-08T03:25:54.923Z,1.38
2023-04-08T03:26:55.033Z,1.35
2023-04-08T03:27:55.110Z,1.35
2023-04-08T03:28:55.157Z,1.37
2023-04-08T03:29:55.217Z,1.37
2023-04-08T03:30:55.288Z,1.34
2023-04-08T03:31:55.455Z,1.37
2023-04-08T03:32:55.475Z,1.37
2023-04-08T03:33:55.538Z,1.36
2023-04-08T03:34:55.641Z,1.37
2023-04-08T03:35:55.755Z,1.36
2023-04-08T03:36:55.824Z,1.39
2023-04-08T03:37:55.926Z,1.35
2023-04-08T03:38:56.008Z,1.36
2023-04-08T03:39:56.110Z,1.35
2023-04-08T03:40:56.197Z,1.36
2023-04-08T03:41:56.291Z,1.35
2023-04-08T03:42:56.363Z,1.37
2023-04-08T03:43:56.437Z,1.36
2023-04-08T03:44:56.518Z,1.36
2023-04-08T03:45:56.643Z,1.35
2023-04-08T03:46:56.729Z,1.33
2023-04-08T03:47:56.853Z,1.35
2023-04-08T03:48:56.890Z,1.37
2023-04-08T03:49:56.981Z,1.38
2023-04-08T03:50:57.067Z,1.34
2023-04-08T03:51:57.167Z,1.37
2023-04-08T03:52:57.249Z,1.39
2023-04-08T03:53:57.340Z,1.37
2023-04-08T03:54:57.435Z,1.37
2023-04-08T03:55:57.533Z,1.37
2023-04-08T03:56:57.647Z,1.36
2023-04-08T03:57:57.751Z,1.36
2023-04-08T03:58:57.880Z,1.39
2023-04-08T03:59:57.986Z,1.37
2023-04-08T04:00:58.056Z,1.38
2023-04-08T04:01:58.194Z,1.37
2023-04-08T04:02:58.347Z,1.35
2023-04-08T04:03:58.469Z,1.36
2023-04-08T04:04:58.559Z,1.36
2023-04-08T04:05:58.581Z,1.37
2023-04-08T04:06:58.698Z,1.36
2023-04-08T04:07:58.803Z,1.36
2023-04-08T04:08:58.899Z,1.36
2023-04-08T04:09:58.997Z,1.38
2023-04-08T04:10:59.100Z,1.37
2023-04-08T04:11:59.178Z,1.38
2023-04-08T04:12:59.266Z,1.39
2023-04-08T04:13:59.358Z,1.36
2023-04-08T04:14:59.437Z,1.37
2023-04-08T04:15:59.612Z,1.37
2023-04-08T04:16:59.632Z,1.39
2023-04-08T04:17:59.855Z,1.38
2023-04-08T04:18:59.946Z,1.37
2023-04-08T04:19:59.918Z,1.37
2023-04-08T04:21:00.030Z,1.37
2023-04-08T04:22:00.126Z,1.37
2023-04-08T04:23:00.233Z,1.36
2023-04-08T04:24:00.342Z,1.36
2023-04-08T04:25:00.440Z,1.38
2023-04-08T04:26:00.558Z,1.36
2023-04-08T04:27:00.657Z,1.38
2023-04-08T04:28:00.774Z,1.38
2023-04-08T04:29:00.875Z,1.38
2023-04-08T04:30:01.096Z,1.36
2023-04-08T04:31:01.129Z,1.38
2023-04-08T04:32:01.219Z,1.38
2023-04-08T04:33:01.327Z,1.39
2023-04-08T04:34:01.440Z,1.39
2023-04-08T04:35:01.591Z,1.37
2023-04-08T04:36:01.768Z,1.36
2023-04-08T04:37:01.761Z,1.38
2023-04-08T04:38:01.865Z,1.37
2023-04-08T04:39:01.952Z,1.37
2023-04-08T04:40:02.069Z,1.37
2023-04-08T04:41:02.132Z,1.34
2023-04-08T04:42:02.242Z,1.37
2023-04-08T04:43:02.334Z,1.38
2023-04-08T04:44:02.426Z,1.36
2023-04-08T04:45:02.542Z,1.40
2023-04-08T04:46:02.637Z,1.38
2023-04-08T04:47:02.713Z,1.37
2023-04-08T04:48:02.837Z,1.39
2023-04-08T04:49:02.895Z,1.39
2023-04-08T04:50:03.010Z,1.38
2023-04-08T04:51:03.159Z,1.38
2023-04-08T04:52:03.297Z,1.39
2023-04-08T04:53:03.350Z,1.40
2023-04-08T04:54:03.494Z,1.41
2023-04-08T04:55:03.614Z,1.39
2023-04-08T04:56:03.718Z,1.41
2023-04-08T04:57:03.830Z,1.37
2023-04-08T04:58:03.950Z,1.38
2023-04-08T04:59:04.060Z,1.39
2023-04-08T05:00:05.601Z,1.38
2023-04-08T05:01:04.259Z,1.39
2023-04-08T05:02:04.458Z,1.38
2023-04-08T05:03:04.630Z,1.37
2023-04-08T05:04:04.588Z,1.36
2023-04-08T05:05:04.754Z,1.39
2023-04-08T05:06:04.821Z,1.38
2023-04-08T05:07:04.932Z,1.40
2023-04-08T05:08:05.054Z,1.40
2023-04-08T05:09:05.148Z,1.37
2023-04-08T05:10:05.258Z,1.36
2023-04-08T05:11:05.369Z,1.40
2023-04-08T05:12:05.474Z,1.39
2023-04-08T05:13:05.535Z,1.38
2023-04-08T05:14:05.624Z,1.38
2023-04-08T05:15:05.762Z,1.38
2023-04-08T05:16:05.880Z,1.39
2023-04-08T05:17:05.981Z,1.39
2023-04-08T05:18:06.144Z,1.37
2023-04-08T05:19:06.197Z,1.39
2023-04-08T05:20:06.277Z,1.38
2023-04-08T05:21:06.375Z,1.39
2023-04-08T05:22:06.478Z,1.36
2023-04-08T05:23:06.578Z,1.38
2023-04-08T05:24:06.672Z,1.41
2023-04-08T05:25:06.758Z,1.40
2023-04-08T05:26:06.838Z,1.40
2023-04-08T05:27:06.956Z,1.38
2023-04-08T05:28:07.023Z,1.38
2023-04-08T05:29:07.108Z,1.38
2023-04-08T05:30:07.216Z,1.38
2023-04-08T05:31:07.409Z,1.38
2023-04-08T05:32:07.446Z,1.40
2023-04-08T05:33:07.559Z,1.37
2023-04-08T05:34:07.659Z,1.38
2023-04-08T05:35:07.760Z,1.40
2023-04-08T05:36:07.848Z,1.39
2023-04-08T05:37:07.937Z,1.40
2023-04-08T05:38:08.014Z,1.38
2023-04-08T05:39:08.100Z,1.35
2023-04-08T05:40:08.171Z,1.36
2023-04-08T05:41:08.250Z,1.36
2023-04-08T05:42:08.324Z,1.39
2023-04-08T05:43:08.426Z,1.39
2023-04-08T05:44:08.485Z,1.37
2023-04-08T05:45:08.566Z,1.37
2023-04-08T05:46:08.659Z,1.38
2023-04-08T05:47:08.822Z,1.36
2023-04-08T05:48:08.787Z,1.37
2023-04-08T05:49:08.848Z,1.37
2023-04-08T05:50:08.961Z,1.37
2023-04-08T05:51:09.027Z,1.38
2023-04-08T05:52:09.078Z,1.37
2023-04-08T05:53:09.162Z,1.38
2023-04-08T05:54:09.225Z,1.38
2023-04-08T05:55:09.293Z,1.38
2023-04-08T05:56:09.398Z,1.38
2023-04-08T05:57:10.584Z,1.37
2023-04-08T05:58:09.596Z,1.36
2023-04-08T05:59:09.696Z,1.37
2023-04-08T06:00:09.782Z,1.39
2023-04-08T06:01:09.839Z,1.40
2023-04-08T06:02:10.025Z,1.36
2023-04-08T06:03:10.290Z,1.36
2023-04-08T06:04:10.202Z,1.39
2023-04-08T06:05:10.119Z,1.37
2023-04-08T06:06:10.208Z,1.40
2023-04-08T06:07:10.304Z,1.38
2023-04-08T06:08:10.389Z,1.39
2023-04-08T06:09:10.465Z,1.38
2023-04-08T06:10:10.572Z,1.36
2023-04-08T06:11:10.620Z,1.37
2023-04-08T06:12:10.691Z,1.38
2023-04-08T06:13:10.781Z,1.37
2023-04-08T06:14:10.862Z,1.38
2023-04-08T06:15:10.963Z,1.37
2023-04-08T06:16:11.060Z,1.37
2023-04-08T06:17:11.130Z,1.37
2023-04-08T06:18:11.213Z,1.38
2023-04-08T06:19:11.323Z,1.38
2023-04-08T06:20:11.434Z,1.38
2023-04-08T06:21:11.496Z,1.41
2023-04-08T06:22:11.563Z,1.38
2023-04-08T06:23:11.647Z,1.38
2023-04-08T06:24:11.722Z,1.38
2023-04-08T06:25:11.787Z,1.38
2023-04-08T06:26:11.853Z,1.39
2023-04-08T06:27:11.929Z,1.38
2023-04-08T06:28:11.993Z,1.37
2023-04-08T06:29:12.047Z,1.37
2023-04-08T06:30:12.083Z,1.37
2023-04-08T06:31:12.132Z,1.38
2023-04-08T06:32:12.447Z,1.40
2023-04-08T06:33:12.242Z,1.37
2023-04-08T06:34:12.296Z,1.37
2023-04-08T06:35:12.361Z,1.38
2023-04-08T06:36:12.417Z,1.38
2023-04-08T06:37:12.500Z,1.36
2023-04-08T06:38:12.569Z,1.36
2023-04-08T06:39:12.618Z,1.39
2023-04-08T06:40:12.699Z,1.39
2023-04-08T06:41:12.772Z,1.39
2023-04-08T06:42:12.842Z,1.37
2023-04-08T06:43:12.894Z,1.35
2023-04-08T06:44:12.962Z,1.37
2023-04-08T06:45:13.017Z,1.39
2023-04-08T06:46:13.127Z,1.37
2023-04-08T06:47:13.185Z,1.39
2023-04-08T06:48:13.261Z,1.37
2023-04-08T06:49:13.345Z,1.37
2023-04-08T06:50:13.438Z,1.38
2023-04-08T06:51:13.532Z,1.38
2023-04-08T06:52:15.155Z,1.38
2023-04-08T06:53:13.676Z,1.40
2023-04-08T06:54:13.770Z,1.38
2023-04-08T06:55:13.857Z,1.37
2023-04-08T06:56:13.949Z,1.37
2023-04-08T06:57:14.024Z,1.39
2023-04-08T06:58:14.105Z,1.39
2023-04-08T06:59:14.197Z,1.39
2023-04-08T07:00:14.325Z,1.38
2023-04-08T07:01:14.412Z,1.38
2023-04-08T07:02:14.496Z,1.37
2023-04-08T07:03:14.646Z,1.38
2023-04-08T07:04:14.716Z,1.36
2023-04-08T07:05:14.738Z,1.39
2023-04-08T07:06:14.834Z,1.38
2023-04-08T07:07:15.184Z,1.37
2023-04-08T07:08:14.983Z,1.37
2023-04-08T07:09:15.056Z,1.40
2023-04-08T07:10:15.108Z,1.40
2023-04-08T07:11:15.160Z,1.38
2023-04-08T07:12:15.223Z,1.40
2023-04-08T07:13:15.260Z,1.38
2023-04-08T07:14:15.304Z,1.35
2023-04-08T07:15:15.345Z,1.39
2023-04-08T07:16:15.414Z,1.37
2023-04-08T07:17:15.564Z,1.38
2023-04-08T07:18:15.488Z,1.39
2023-04-08T07:19:15.531Z,1.38
2023-04-08T07:20:15.577Z,1.39
2023-04-08T07:21:15.628Z,1.38
2023-04-08T07:22:16.126Z,1.38
2023-04-08T07:23:15.764Z,1.38
2023-04-08T07:24:15.831Z,1.37
2023-04-08T07:25:15.907Z,1.37
2023-04-08T07:26:15.973Z,1.37
2023-04-08T07:27:16.038Z,1.37
2023-04-08T07:28:16.051Z,1.37
2023-04-08T07:29:16.097Z,1.38
2023-04-08T07:30:16.178Z,1.38
2023-04-08T07:31:16.369Z,1.37
2023-04-08T07:32:16.319Z,1.36
2023-04-08T07:33:16.374Z,1.38
2023-04-08T07:34:16.485Z,1.37
2023-04-08T07:35:16.577Z,1.38
2023-04-08T07:36:16.657Z,1.37
2023-04-08T07:37:16.731Z,1.37
2023-04-08T07:38:16.767Z,1.38
2023-04-08T07:39:16.830Z,1.37
2023-04-08T07:40:16.901Z,1.36
2023-04-08T07:41:16.987Z,1.37
2023-04-08T07:42:17.055Z,1.38
2023-04-08T07:43:17.115Z,1.36
2023-04-08T07:44:17.234Z,1.37
2023-04-08T07:45:17.240Z,1.36
2023-04-08T07:46:17.339Z,1.36
2023-04-08T07:47:17.353Z,1.37
2023-04-08T07:48:17.390Z,1.35
2023-04-08T07:49:17.457Z,1.36
2023-04-08T07:50:17.552Z,1.37
2023-04-08T07:51:17.591Z,1.38
2023-04-08T07:52:17.630Z,1.40
2023-04-08T07:53:17.665Z,1.37
2023-04-08T07:54:17.704Z,1.39
2023-04-08T07:55:17.736Z,1.37
2023-04-08T07:56:17.777Z,1.38
2023-04-08T07:57:17.801Z,1.36
2023-04-08T07:58:17.838Z,1.37
2023-04-08T07:59:17.868Z,1.37
2023-04-08T08:00:17.898Z,1.35
2023-04-08T08:01:17.940Z,1.36
2023-04-08T08:02:18.106Z,1.38
2023-04-08T08:03:18.154Z,1.37
2023-04-08T08:04:18.330Z,1.39
2023-04-08T08:05:18.236Z,1.38
2023-04-08T08:06:18.112Z,1.36
2023-04-08T08:07:18.151Z,1.35
2023-04-08T08:08:18.193Z,1.36
2023-04-08T08:09:18.223Z,1.36
2023-04-08T08:10:18.286Z,1.37
2023-04-08T08:11:18.303Z,1.37
2023-04-08T08:12:18.335Z,1.40
2023-04-08T08:13:18.373Z,1.36
2023-04-08T08:14:18.397Z,1.35
2023-04-08T08:15:18.450Z,1.35
2023-04-08T08:16:18.549Z,1.36
2023-04-08T08:17:18.521Z,1.36
2023-04-08T08:18:18.543Z,1.34
2023-04-08T08:19:18.569Z,1.37
2023-04-08T08:20:18.597Z,1.36
2023-04-08T08:21:18.638Z,1.37
2023-04-08T08:22:18.642Z,1.37
2023-04-08T08:23:18.669Z,1.34
2023-04-08T08:24:18.710Z,1.36
2023-04-08T08:25:18.728Z,1.37
2023-04-08T08:26:18.751Z,1.35
2023-04-08T08:27:18.772Z,1.36
2023-04-08T08:28:18.807Z,1.36
2023-04-08T08:29:18.833Z,1.38
2023-04-08T08:30:18.873Z,1.36
2023-04-08T08:31:18.947Z,1.36
2023-04-08T08:32:18.956Z,1.35
2023-04-08T08:33:18.990Z,1.36
2023-04-08T08:34:19.006Z,1.34
2023-04-08T08:35:19.053Z,1.36
2023-04-08T08:36:19.166Z,1.35
2023-04-08T08:37:19.109Z,1.34
2023-04-08T08:38:19.148Z,1.37
2023-04-08T08:39:19.171Z,1.34
2023-04-08T08:40:19.220Z,1.33
2023-04-08T08:41:19.240Z,1.35
2023-04-08T08:42:19.268Z,1.37
2023-04-08T08:43:19.306Z,1.35
2023-04-08T08:44:19.342Z,1.36
2023-04-08T08:45:19.469Z,1.37
2023-04-08T08:46:19.644Z,1.34
2023-04-08T08:47:19.690Z,1.37
2023-04-08T08:48:19.746Z,1.35
2023-04-08T08:49:19.853Z,1.34
2023-04-08T08:50:19.975Z,1.35
2023-04-08T08:51:20.052Z,1.35
2023-04-08T08:52:20.140Z,1.35
2023-04-08T08:53:20.246Z,1.35
2023-04-08T08:54:20.331Z,1.35
2023-04-08T08:55:36.168Z,1.32
2023-04-08T08:56:21.466Z,1.33
2023-04-08T08:57:20.492Z,1.33
2023-04-08T08:58:20.531Z,1.33
2023-04-08T08:59:20.584Z,1.33
2023-04-08T09:00:20.647Z,1.34
2023-04-08T09:01:20.674Z,1.35
2023-04-08T09:02:20.763Z,1.33
2023-04-08T09:03:21.123Z,1.33
2023-04-08T09:04:21.165Z,1.34
2023-04-08T09:05:20.972Z,1.35
2023-04-08T09:06:21.019Z,1.33
2023-04-08T09:07:21.115Z,1.34
2023-04-08T09:08:21.205Z,1.31
2023-04-08T09:09:21.322Z,1.32
2023-04-08T09:10:21.413Z,1.31
2023-04-08T09:11:21.514Z,1.34
2023-04-08T09:12:21.612Z,1.33
2023-04-08T09:13:21.750Z,1.34
2023-04-08T09:14:21.788Z,1.31
2023-04-08T09:15:21.894Z,1.29
2023-04-08T09:16:22.048Z,1.31
2023-04-08T09:17:22.079Z,1.31
2023-04-08T09:18:22.160Z,1.31
2023-04-08T09:19:22.240Z,1.31
2023-04-08T09:20:22.334Z,1.30
2023-04-08T09:21:22.453Z,1.30
2023-04-08T09:22:22.526Z,1.30
2023-04-08T09:23:22.618Z,1.30
2023-04-08T09:24:22.704Z,1.30
2023-04-08T09:25:22.798Z,1.30
2023-04-08T09:26:22.895Z,1.30
2023-04-08T09:27:22.993Z,1.27
2023-04-08T09:28:23.071Z,1.31
2023-04-08T09:29:26.257Z,1.31
2023-04-08T09:30:23.191Z,1.34
2023-04-08T09:31:23.266Z,1.31
2023-04-08T09:32:23.247Z,1.32
2023-04-08T09:33:23.259Z,1.32
2023-04-08T09:34:23.308Z,1.32
2023-04-08T09:35:23.327Z,1.31
2023-04-08T09:36:23.361Z,1.30
2023-04-08T09:37:23.384Z,1.27
2023-04-08T09:38:23.412Z,1.32
2023-04-08T09:39:23.449Z,1.31
2023-04-08T09:40:23.469Z,1.30
2023-04-08T09:41:23.523Z,1.31
2023-04-08T09:42:23.522Z,1.29
2023-04-08T09:43:23.555Z,1.28
2023-04-08T09:44:23.569Z,1.30
2023-04-08T09:45:23.619Z,1.27
2023-04-08T09:46:23.624Z,1.30
2023-04-08T09:47:23.755Z,1.30
2023-04-08T09:48:23.691Z,1.29
2023-04-08T09:49:23.714Z,1.32
2023-04-08T09:50:23.738Z,1.29
2023-04-08T09:51:23.772Z,1.31
2023-04-08T09:52:23.802Z,1.28
2023-04-08T09:53:23.827Z,1.30
2023-04-08T09:54:23.862Z,1.27
2023-04-08T09:55:23.880Z,1.29
2023-04-08T09:56:23.902Z,1.30
2023-04-08T09:57:23.934Z,1.28
2023-04-08T09:58:23.949Z,1.30
2023-04-08T09:59:23.980Z,1.28
2023-04-08T10:00:24.012Z,1.30
2023-04-08T10:01:24.078Z,1.29
2023-04-08T10:02:24.176Z,1.31
2023-04-08T10:03:24.321Z,1.31
2023-04-08T10:04:24.165Z,1.28
2023-04-08T10:05:24.139Z,1.29
2023-04-08T10:06:24.190Z,1.29
2023-04-08T10:07:24.276Z,1.31
2023-04-08T10:08:24.359Z,1.28
2023-04-08T10:09:24.459Z,1.28
2023-04-08T10:10:24.538Z,1.29
2023-04-08T10:11:24.615Z,1.28
2023-04-08T10:12:24.686Z,1.29
2023-04-08T10:13:24.786Z,1.31
2023-04-08T10:14:24.861Z,1.31
2023-04-08T10:15:24.957Z,1.29
2023-04-08T10:16:25.068Z,1.32
2023-04-08T10:17:25.141Z,1.30
2023-04-08T10:18:25.189Z,1.30
2023-04-08T10:19:25.265Z,1.30
2023-04-08T10:20:25.357Z,1.32
2023-04-08T10:21:25.446Z,1.30
2023-04-08T10:22:25.532Z,1.30
2023-04-08T10:23:25.624Z,1.30
2023-04-08T10:24:25.742Z,1.31
2023-04-08T10:25:25.795Z,1.32
2023-04-08T10:26:25.858Z,1.31
2023-04-08T10:27:25.950Z,1.31
2023-04-08T10:28:26.048Z,1.29
2023-04-08T10:29:26.130Z,1.30
2023-04-08T10:30:26.221Z,1.30
2023-04-08T10:31:26.336Z,1.33
2023-04-08T10:32:26.391Z,1.31
2023-04-08T10:33:26.489Z,1.31
2023-04-08T10:34:26.561Z,1.29
2023-04-08T10:35:26.649Z,1.28
2023-04-08T10:36:26.712Z,1.30
2023-04-08T10:37:26.793Z,1.32
2023-04-08T10:38:26.877Z,1.31
2023-04-08T10:39:26.954Z,1.30
2023-04-08T10:40:27.037Z,1.29
2023-04-08T10:41:27.118Z,1.31
2023-04-08T10:42:27.196Z,1.30
2023-04-08T10:43:27.275Z,1.31
2023-04-08T10:44:27.375Z,1.29
2023-04-08T10:45:27.462Z,1.31
2023-04-08T10:46:27.606Z,1.30
2023-04-08T10:47:27.668Z,1.29
2023-04-08T10:48:27.690Z,1.28
2023-04-08T10:49:27.772Z,1.31
2023-04-08T10:50:27.859Z,1.31
2023-04-08T10:51:27.966Z,1.32
2023-04-08T10:52:28.014Z,1.29
2023-04-08T10:53:28.099Z,1.30
2023-04-08T10:54:28.182Z,1.30
2023-04-08T10:55:28.250Z,1.32
2023-04-08T10:56:28.349Z,1.30
2023-04-08T10:57:28.425Z,1.32
2023-04-08T10:58:28.493Z,1.31
2023-04-08T10:59:28.589Z,1.30
2023-04-08T11:00:28.657Z,1.30
2023-04-08T11:01:28.822Z,1.30
2023-04-08T11:02:28.958Z,1.31
2023-04-08T11:03:29.050Z,1.33
2023-04-08T11:04:29.099Z,1.32
2023-04-08T11:05:29.081Z,1.33
2023-04-08T11:06:29.181Z,1.30
2023-04-08T11:07:29.261Z,1.31
2023-04-08T11:08:29.323Z,1.34
2023-04-08T11:09:29.415Z,1.32
2023-04-08T11:10:29.493Z,1.31
2023-04-08T11:11:29.642Z,1.31
2023-04-08T11:12:29.657Z,1.32
2023-04-08T11:13:29.728Z,1.32
2023-04-08T11:14:29.875Z,1.32
2023-04-08T11:15:29.966Z,1.30
2023-04-08T11:16:30.073Z,1.34
2023-04-08T11:17:30.076Z,1.32
2023-04-08T11:18:30.132Z,1.30
2023-04-08T11:19:30.209Z,1.32
2023-04-08T11:20:30.293Z,1.32
2023-04-08T11:21:30.384Z,1.34
2023-04-08T11:22:30.471Z,1.31
2023-04-08T11:23:30.560Z,1.31
2023-04-08T11:24:30.665Z,1.31
2023-04-08T11:25:30.754Z,1.31
2023-04-08T11:26:30.829Z,1.32
2023-04-08T11:27:30.921Z,1.34
2023-04-08T11:28:31.006Z,1.30
2023-04-08T11:29:31.096Z,1.34
2023-04-08T11:30:31.187Z,1.33
2023-04-08T11:31:31.339Z,1.35
2023-04-08T11:32:31.390Z,1.33
2023-04-08T11:33:31.444Z,1.32
2023-04-08T11:34:31.530Z,1.32
2023-04-08T11:35:31.664Z,1.33
2023-04-08T11:36:31.703Z,1.33
2023-04-08T11:37:31.787Z,1.32
2023-04-08T11:38:31.862Z,1.32
2023-04-08T11:39:31.950Z,1.31
2023-04-08T11:40:32.021Z,1.30
2023-04-08T11:41:32.117Z,1.31
2023-04-08T11:42:32.206Z,1.33
2023-04-08T11:43:32.300Z,1.33
2023-04-08T11:44:32.381Z,1.32
2023-04-08T11:45:32.489Z,1.32
2023-04-08T11:46:32.641Z,1.31
2023-04-08T11:47:32.655Z,1.32
2023-04-08T11:48:32.727Z,1.32
2023-04-08T11:49:32.804Z,1.33
2023-04-08T11:50:32.891Z,1.33
2023-04-08T11:51:32.978Z,1.31
2023-04-08T11:52:33.062Z,1.32
2023-04-08T11:53:33.162Z,1.34
2023-04-08T11:54:33.248Z,1.35
2023-04-08T11:55:33.325Z,1.33
2023-04-08T11:56:33.440Z,1.31
2023-04-08T11:57:33.521Z,1.31
2023-04-08T11:58:33.616Z,1.33
2023-04-08T11:59:33.711Z,1.32
2023-04-08T12:00:33.789Z,1.31
2023-04-08T12:01:33.895Z,1.33
2023-04-08T12:02:34.069Z,1.32
2023-04-08T12:03:34.141Z,1.29
2023-04-08T12:04:34.311Z,1.32
2023-04-08T12:05:34.229Z,1.31
2023-04-08T12:06:34.314Z,1.33
2023-04-08T12:07:34.418Z,1.30
2023-04-08T12:08:34.494Z,1.33
2023-04-08T12:09:34.570Z,1.32
2023-04-08T12:10:34.666Z,1.30
2023-04-08T12:11:34.745Z,1.31
2023-04-08T12:12:34.835Z,1.33
2023-04-08T12:13:34.914Z,1.32
2023-04-08T12:14:35.109Z,1.32
2023-04-08T12:15:35.139Z,1.34
2023-04-08T12:16:35.394Z,1.32
2023-04-08T12:17:35.314Z,1.33
2023-04-08T12:18:35.373Z,1.34
2023-04-08T12:19:37.194Z,1.34
2023-04-08T12:20:35.450Z,1.34
2023-04-08T12:21:35.485Z,1.31
2023-04-08T12:22:35.518Z,1.32
2023-04-08T12:23:35.535Z,1.33
2023-04-08T12:24:35.558Z,1.32
2023-04-08T12:25:35.593Z,1.35
2023-04-08T12:26:35.669Z,1.32
2023-04-08T12:27:35.654Z,1.33
2023-04-08T12:28:35.676Z,1.32
2023-04-08T12:29:35.711Z,1.34
2023-04-08T12:30:35.741Z,1.33
2023-04-08T12:31:35.821Z,1.34
2023-04-08T12:32:35.833Z,1.34
2023-04-08T12:33:35.826Z,1.33
2023-04-08T12:34:35.888Z,1.35
2023-04-08T12:35:35.911Z,1.33
2023-04-08T12:36:35.907Z,1.33
2023-04-08T12:37:35.937Z,1.34
2023-04-08T12:38:35.969Z,1.34
2023-04-08T12:39:35.995Z,1.33
2023-04-08T12:40:36.031Z,1.35
2023-04-08T12:41:36.057Z,1.34
2023-04-08T12:42:36.101Z,1.35
2023-04-08T12:43:36.124Z,1.38
2023-04-08T12:44:36.145Z,1.36
2023-04-08T12:45:36.176Z,1.31
2023-04-08T12:46:36.247Z,1.32
2023-04-08T12:47:36.258Z,1.38
2023-04-08T12:48:36.628Z,1.32
2023-04-08T12:49:48.798Z,1.36
2023-04-08T12:50:37.338Z,1.36
2023-04-08T12:51:36.369Z,1.37
2023-04-08T12:52:36.408Z,1.36
2023-04-08T12:53:36.441Z,1.35
2023-04-08T12:54:36.460Z,1.35
2023-04-08T12:55:36.504Z,1.38
2023-04-08T12:56:36.530Z,1.34
2023-04-08T12:57:36.552Z,1.36
2023-04-08T12:58:36.582Z,1.35
2023-04-08T12:59:36.612Z,1.35
2023-04-08T13:00:36.689Z,1.36
2023-04-08T13:01:36.819Z,1.35
2023-04-08T13:02:36.898Z,1.36
2023-04-08T13:03:37.011Z,1.36
2023-04-08T13:04:37.039Z,1.34
2023-04-08T13:05:43.284Z,1.34
2023-04-08T13:06:38.159Z,1.34
2023-04-08T13:07:37.167Z,1.35
2023-04-08T13:08:37.207Z,1.35
2023-04-08T13:09:37.224Z,1.36
2023-04-08T13:10:37.254Z,1.38
2023-04-08T13:11:37.293Z,1.36
2023-04-08T13:12:37.321Z,1.37
2023-04-08T13:13:37.353Z,1.35
2023-04-08T13:14:37.382Z,1.36
2023-04-08T13:15:37.403Z,1.34
2023-04-08T13:16:37.528Z,1.33
2023-04-08T13:17:37.595Z,1.36
2023-04-08T13:18:37.641Z,1.34
2023-04-08T13:19:37.722Z,1.37